< < Back
Terminal Aerodrome Forecast


Current Version              Previous Versions:   1  2  3  4  5  6  7  8  9  

Terminal Aerodrome Forecast

295
FTUS42 KJAX 300521
TAFJAX
TAF
KJAX 300521Z 3006/0106 VRB03KT P6SM SCT040 BKN250
     FM301600 27008KT P6SM VCSH BKN050
     FM301900 24011KT P6SM VCTS BKN040CB
     FM010000 22006KT P6SM SCT040 BKN100
     FM010400 VRB03KT P6SM BKN250=

Latest METAR

624
SAUS80 KWBC 301200
MTRJAX
METAR KJAX 301156Z 25006KT 8SM FEW015 FEW050 BKN250 23/23 A3006 RMK AO2
SLP181 70023 T02330228 10239 20206 51015


USA.gov is the U.S. government's official web portal to all federal, state and local government web resources and services.